sensor_id;sensor_type;location;lat;lon;timestamp;pressure;altitude;pressure_sealevel;temperature;humidity
42247;BME280;27913;42.722;23.268;2023-02-15T00:01:08;96215.78;;;0.67;90.41
42247;BME280;27913;42.722;23.268;2023-02-15T00:03:34;96186.13;;;0.43;90.64
42247;BME280;27913;42.722;23.268;2023-02-15T00:06:00;96217.63;;;0.65;90.56
42247;BME280;27913;42.722;23.268;2023-02-15T00:08:26;96214.09;;;0.66;90.92
42247;BME280;27913;42.722;23.268;2023-02-15T00:11:05;96191.94;;;0.47;91.08
42247;BME280;27913;42.722;23.268;2023-02-15T00:13:31;96223.34;;;0.70;91.09
42247;BME280;27913;42.722;23.268;2023-02-15T00:16:06;96186.31;;;0.40;91.02
42247;BME280;27913;42.722;23.268;2023-02-15T00:18:32;96237.50;;;0.64;91.28
42247;BME280;27913;42.722;23.268;2023-02-15T00:20:58;96231.47;;;0.64;91.16
42247;BME280;27913;42.722;23.268;2023-02-15T00:23:28;96223.56;;;0.67;90.86
42247;BME280;27913;42.722;23.268;2023-02-15T00:26:06;96232.03;;;0.69;90.65
42247;BME280;27913;42.722;23.268;2023-02-15T00:28:32;96227.16;;;0.64;90.64
42247;BME280;27913;42.722;23.268;2023-02-15T00:31:09;96165.72;;;0.24;90.72
42247;BME280;27913;42.722;23.268;2023-02-15T00:33:35;96037.66;;;-0.55;90.32
42247;BME280;27913;42.722;23.268;2023-02-15T00:36:02;96237.41;;;0.66;90.49
42247;BME280;27913;42.722;23.268;2023-02-15T00:38:29;96242.59;;;0.66;90.52
42247;BME280;27913;42.722;23.268;2023-02-15T00:40:55;96214.41;;;0.46;90.34
42247;BME280;27913;42.722;23.268;2023-02-15T00:43:21;96230.84;;;0.60;90.40
42247;BME280;27913;42.722;23.268;2023-02-15T00:45:47;96241.50;;;0.55;90.65
42247;BME280;27913;42.722;23.268;2023-02-15T00:48:13;96240.66;;;0.55;90.71
42247;BME280;27913;42.722;23.268;2023-02-15T00:50:38;96168.75;;;0.16;90.78
42247;BME280;27913;42.722;23.268;2023-02-15T00:53:04;96239.66;;;0.57;90.65
42247;BME280;27913;42.722;23.268;2023-02-15T00:55:30;96165.53;;;0.13;90.47
42247;BME280;27913;42.722;23.268;2023-02-15T00:57:55;96238.91;;;0.55;90.57
42247;BME280;27913;42.722;23.268;2023-02-15T01:05:17;96135.97;;;0.02;90.21
42247;BME280;27913;42.722;23.268;2023-02-15T01:07:42;96235.56;;;0.53;90.24
42247;BME280;27913;42.722;23.268;2023-02-15T01:10:08;96169.59;;;0.17;90.58
42247;BME280;27913;42.722;23.268;2023-02-15T01:12:34;96110.59;;;-0.20;90.65
42247;BME280;27913;42.722;23.268;2023-02-15T01:14:59;96110.97;;;-0.27;90.71
42247;BME280;27913;42.722;23.268;2023-02-15T01:17:25;96133.41;;;-0.13;90.92
42247;BME280;27913;42.722;23.268;2023-02-15T01:19:50;96196.38;;;0.30;91.34
42247;BME280;27913;42.722;23.268;2023-02-15T01:22:17;96088.34;;;-0.38;91.45
42247;BME280;27913;42.722;23.268;2023-02-15T01:24:42;96072.47;;;-0.46;91.53
42247;BME280;27913;42.722;23.268;2023-02-15T01:27:08;96220.53;;;0.45;91.89
42247;BME280;27913;42.722;23.268;2023-02-15T01:29:33;96163.22;;;0.08;91.80
42247;BME280;27913;42.722;23.268;2023-02-15T01:31:59;96220.53;;;0.45;92.14
42247;BME280;27913;42.722;23.268;2023-02-15T01:34:24;96214.50;;;0.45;92.05
42247;BME280;27913;42.722;23.268;2023-02-15T01:36:56;96181.81;;;0.29;91.56
42247;BME280;27913;42.722;23.268;2023-02-15T01:39:22;96187.53;;;0.34;91.75
42247;BME280;27913;42.722;23.268;2023-02-15T01:41:47;96099.25;;;-0.18;91.36
42247;BME280;27913;42.722;23.268;2023-02-15T01:45:02;96076.06;;;-0.34;91.74
42247;BME280;27913;42.722;23.268;2023-02-15T01:47:42;96216.06;;;0.47;91.75
42247;BME280;27913;42.722;23.268;2023-02-15T01:52:42;96101.53;;;-0.13;91.75
42247;BME280;27913;42.722;23.268;2023-02-15T01:55:11;96132.94;;;0.10;91.74
42247;BME280;27913;42.722;23.268;2023-02-15T01:57:38;96133.56;;;0.14;91.41
42247;BME280;27913;42.722;23.268;2023-02-15T02:00:06;96193.78;;;0.59;91.36
42247;BME280;27913;42.722;23.268;2023-02-15T02:02:31;96201.34;;;0.63;91.36
42247;BME280;27913;42.722;23.268;2023-02-15T02:05:02;96191.00;;;0.63;91.19
42247;BME280;27913;42.722;23.268;2023-02-15T02:07:34;96145.94;;;0.23;91.42
42247;BME280;27913;42.722;23.268;2023-02-15T02:10:04;96199.22;;;0.55;91.89
42247;BME280;27913;42.722;23.268;2023-02-15T02:12:30;96166.16;;;0.31;91.81
42247;BME280;27913;42.722;23.268;2023-02-15T02:14:57;96156.22;;;0.10;92.97
42247;BME280;27913;42.722;23.268;2023-02-15T02:37:10;96116.13;;;-0.27;94.56
42247;BME280;27913;42.722;23.268;2023-02-15T02:40:16;96162.03;;;-0.01;94.53
42247;BME280;27913;42.722;23.268;2023-02-15T02:43:09;96137.66;;;-0.11;94.24
42247;BME280;27913;42.722;23.268;2023-02-15T02:46:44;96208.22;;;0.34;94.58
42247;BME280;27913;42.722;23.268;2023-02-15T02:48:43;96174.13;;;0.13;94.56
42247;BME280;27913;42.722;23.268;2023-02-15T02:51:08;96208.88;;;0.38;94.52
42247;BME280;27913;42.722;23.268;2023-02-15T02:53:34;96180.69;;;0.19;94.55
42247;BME280;27913;42.722;23.268;2023-02-15T02:56:06;96155.38;;;0.09;94.42
42247;BME280;27913;42.722;23.268;2023-02-15T02:58:39;96187.34;;;0.23;94.50
42247;BME280;27913;42.722;23.268;2023-02-15T03:01:23;96166.56;;;0.10;94.37
42247;BME280;27913;42.722;23.268;2023-02-15T03:03:53;96228.84;;;0.51;94.26
42247;BME280;27913;42.722;23.268;2023-02-15T03:06:44;96227.81;;;0.53;93.99
42247;BME280;27913;42.722;23.268;2023-02-15T03:09:42;96135.06;;;0.03;93.68
42247;BME280;27913;42.722;23.268;2023-02-15T03:14:41;96231.69;;;0.60;93.86
42247;BME280;27913;42.722;23.268;2023-02-15T03:17:11;96178.38;;;0.29;93.75
42247;BME280;27913;42.722;23.268;2023-02-15T03:19:39;96231.22;;;0.68;93.62
42247;BME280;27913;42.722;23.268;2023-02-15T03:22:15;96227.25;;;0.63;94.02
42247;BME280;27913;42.722;23.268;2023-02-15T03:25:08;96201.38;;;0.48;93.71
42247;BME280;27913;42.722;23.268;2023-02-15T03:27:47;96179.75;;;0.34;93.94
42247;BME280;27913;42.722;23.268;2023-02-15T03:30:15;96071.34;;;-0.42;94.41
42247;BME280;27913;42.722;23.268;2023-02-15T03:32:45;96204.88;;;0.47;94.49
42247;BME280;27913;42.722;23.268;2023-02-15T03:35:12;96229.75;;;0.64;94.61
42247;BME280;27913;42.722;23.268;2023-02-15T03:37:53;96201.38;;;0.48;94.47
42247;BME280;27913;42.722;23.268;2023-02-15T03:40:34;96109.56;;;-0.03;94.52
42247;BME280;27913;42.722;23.268;2023-02-15T03:46:22;96079.09;;;-0.27;94.65
42247;BME280;27913;42.722;23.268;2023-02-15T03:48:57;96102.19;;;-0.09;94.77
42247;BME280;27913;42.722;23.268;2023-02-15T03:51:29;96204.50;;;0.53;94.93
42247;BME280;27913;42.722;23.268;2023-02-15T03:54:10;96208.47;;;0.59;95.11
42247;BME280;27913;42.722;23.268;2023-02-15T03:56:40;96169.59;;;0.31;95.08
42247;BME280;27913;42.722;23.268;2023-02-15T03:59:07;96225.56;;;0.62;95.30
42247;BME280;27913;42.722;23.268;2023-02-15T04:04:30;96152.78;;;0.24;95.09
42247;BME280;27913;42.722;23.268;2023-02-15T04:06:57;96208.94;;;0.51;95.06
42247;BME280;27913;42.722;23.268;2023-02-15T04:09:23;96239.63;;;0.72;94.89
42247;BME280;27913;42.722;23.268;2023-02-15T04:12:07;96179.94;;;0.31;95.33
42247;BME280;27913;42.722;23.268;2023-02-15T04:14:32;96247.88;;;0.64;95.76
42247;BME280;27913;42.722;23.268;2023-02-15T04:17:16;96243.63;;;0.63;95.89
42247;BME280;27913;42.722;23.268;2023-02-15T04:19:41;96171.19;;;0.19;96.03
42247;BME280;27913;42.722;23.268;2023-02-15T04:22:25;96255.25;;;0.70;95.96
42247;BME280;27913;42.722;23.268;2023-02-15T04:25:09;96255.97;;;0.72;95.93
42247;BME280;27913;42.722;23.268;2023-02-15T04:27:40;96203.59;;;0.40;95.69
42247;BME280;27913;42.722;23.268;2023-02-15T04:30:06;96262.75;;;0.75;95.72
42247;BME280;27913;42.722;23.268;2023-02-15T04:32:32;96120.00;;;-0.19;95.52
42247;BME280;27913;42.722;23.268;2023-02-15T04:34:58;96273.22;;;0.74;95.66
42247;BME280;27913;42.722;23.268;2023-02-15T04:37:23;96274.00;;;0.74;96.04
42247;BME280;27913;42.722;23.268;2023-02-15T04:39:49;96204.00;;;0.33;95.65
42247;BME280;27913;42.722;23.268;2023-02-15T04:42:15;96271.16;;;0.79;95.57
42247;BME280;27913;42.722;23.268;2023-02-15T04:44:41;96277.25;;;0.78;95.78
42247;BME280;27913;42.722;23.268;2023-02-15T04:47:06;96231.03;;;0.57;95.56
42247;BME280;27913;42.722;23.268;2023-02-15T04:49:35;96271.53;;;0.72;95.76
42247;BME280;27913;42.722;23.268;2023-02-15T04:52:00;96266.34;;;0.72;95.86
42247;BME280;27913;42.722;23.268;2023-02-15T04:54:26;96273.09;;;0.75;95.76
42247;BME280;27913;42.722;23.268;2023-02-15T04:56:51;96148.09;;;0.02;95.57
42247;BME280;27913;42.722;23.268;2023-02-15T04:59:19;96271.25;;;0.77;95.71
42247;BME280;27913;42.722;23.268;2023-02-15T05:01:45;96285.03;;;0.78;95.75
42247;BME280;27913;42.722;23.268;2023-02-15T05:04:11;96285.84;;;0.78;95.67
42247;BME280;27913;42.722;23.268;2023-02-15T05:06:36;96278.84;;;0.80;95.50
42247;BME280;27913;42.722;23.268;2023-02-15T05:09:02;96289.09;;;0.82;95.37
42247;BME280;27913;42.722;23.268;2023-02-15T05:11:27;96211.09;;;0.30;95.35
42247;BME280;27913;42.722;23.268;2023-02-15T05:13:53;96285.22;;;0.75;95.59
42247;BME280;27913;42.722;23.268;2023-02-15T05:16:18;96285.84;;;0.78;95.74
42247;BME280;27913;42.722;23.268;2023-02-15T05:18:44;96249.44;;;0.52;95.41
42247;BME280;27913;42.722;23.268;2023-02-15T05:21:09;96269.22;;;0.68;95.23
42247;BME280;27913;42.722;23.268;2023-02-15T05:23:36;96194.09;;;0.11;95.02
42247;BME280;27913;42.722;23.268;2023-02-15T05:26:02;96301.31;;;0.80;95.29
42247;BME280;27913;42.722;23.268;2023-02-15T05:28:46;96237.63;;;0.33;95.35
42247;BME280;27913;42.722;23.268;2023-02-15T05:31:14;96274.75;;;0.62;95.19
42247;BME280;27913;42.722;23.268;2023-02-15T05:33:41;96303.59;;;0.84;95.19
42247;BME280;27913;42.722;23.268;2023-02-15T05:36:07;96212.75;;;0.31;94.80
42247;BME280;27913;42.722;23.268;2023-02-15T05:38:33;96283.00;;;0.68;94.90
42247;BME280;27913;42.722;23.268;2023-02-15T05:40:59;96322.28;;;0.90;95.00
42247;BME280;27913;42.722;23.268;2023-02-15T05:43:27;96324.81;;;0.91;94.59
42247;BME280;27913;42.722;23.268;2023-02-15T05:45:54;96172.56;;;-0.04;94.74
42247;BME280;27913;42.722;23.268;2023-02-15T05:48:22;96264.34;;;0.63;94.33
42247;BME280;27913;42.722;23.268;2023-02-15T05:51:02;96325.06;;;1.01;93.86
42247;BME280;27913;42.722;23.268;2023-02-15T05:53:30;96320.81;;;1.00;93.79
42247;BME280;27913;42.722;23.268;2023-02-15T05:55:56;96210.16;;;0.31;93.72
42247;BME280;27913;42.722;23.268;2023-02-15T05:58:28;96241.03;;;0.48;93.84
42247;BME280;27913;42.722;23.268;2023-02-15T06:00:54;96328.41;;;1.03;93.65
42247;BME280;27913;42.722;23.268;2023-02-15T06:03:20;96290.19;;;0.78;93.74
42247;BME280;27913;42.722;23.268;2023-02-15T06:05:45;96331.09;;;1.02;93.77
42247;BME280;27913;42.722;23.268;2023-02-15T06:08:11;96322.47;;;1.01;93.60
42247;BME280;27913;42.722;23.268;2023-02-15T06:10:36;96275.78;;;0.74;93.58
42247;BME280;27913;42.722;23.268;2023-02-15T06:13:02;96285.31;;;0.88;93.05
42247;BME280;27913;42.722;23.268;2023-02-15T06:15:27;96279.94;;;0.91;93.13
42247;BME280;27913;42.722;23.268;2023-02-15T06:17:53;96299.44;;;0.96;92.69
42247;BME280;27913;42.722;23.268;2023-02-15T06:20:18;96259.31;;;0.75;92.57
42247;BME280;27913;42.722;23.268;2023-02-15T06:22:44;96333.00;;;1.13;92.57
42247;BME280;27913;42.722;23.268;2023-02-15T06:25:09;96303.88;;;0.94;92.43
42247;BME280;27913;42.722;23.268;2023-02-15T06:27:36;96303.88;;;0.94;92.39
42247;BME280;27913;42.722;23.268;2023-02-15T06:30:04;96306.47;;;0.94;92.12
42247;BME280;27913;42.722;23.268;2023-02-15T06:32:29;96266.09;;;0.77;92.32
42247;BME280;27913;42.722;23.268;2023-02-15T06:34:55;96328.34;;;1.18;92.08
42247;BME280;27913;42.722;23.268;2023-02-15T06:37:20;96331.78;;;1.18;92.05
42247;BME280;27913;42.722;23.268;2023-02-15T06:39:45;96282.53;;;0.91;91.78
42247;BME280;27913;42.722;23.268;2023-02-15T06:42:11;96329.75;;;1.24;91.54
42247;BME280;27913;42.722;23.268;2023-02-15T06:44:36;96330.47;;;1.26;91.47
42247;BME280;27913;42.722;23.268;2023-02-15T06:47:02;96332.72;;;1.17;91.29
42247;BME280;27913;42.722;23.268;2023-02-15T06:49:27;96321.72;;;1.14;91.60
42247;BME280;27913;42.722;23.268;2023-02-15T06:51:52;96329.63;;;1.25;91.02
42247;BME280;27913;42.722;23.268;2023-02-15T06:54:18;96331.41;;;1.25;90.86
42247;BME280;27913;42.722;23.268;2023-02-15T06:56:43;96288.50;;;1.06;90.97
42247;BME280;27913;42.722;23.268;2023-02-15T06:59:09;96336.31;;;1.29;90.97
42247;BME280;27913;42.722;23.268;2023-02-15T07:01:34;96332.03;;;1.28;90.91
42247;BME280;27913;42.722;23.268;2023-02-15T07:04:02;96209.59;;;0.55;90.73
42247;BME280;27913;42.722;23.268;2023-02-15T07:06:31;96293.44;;;0.96;90.46
42247;BME280;27913;42.722;23.268;2023-02-15T07:08:57;96297.75;;;1.10;90.48
42247;BME280;27913;42.722;23.268;2023-02-15T07:11:22;96345.06;;;1.41;90.28
42247;BME280;27913;42.722;23.268;2023-02-15T07:14:06;96299.84;;;1.18;90.21
42247;BME280;27913;42.722;23.268;2023-02-15T07:16:32;96305.22;;;1.15;89.99
42247;BME280;27913;42.722;23.268;2023-02-15T07:18:57;96184.09;;;0.48;90.16
42247;BME280;27913;42.722;23.268;2023-02-15T07:21:23;96305.13;;;1.16;89.95
42247;BME280;27913;42.722;23.268;2023-02-15T07:23:48;96321.66;;;1.28;89.71
42247;BME280;27913;42.722;23.268;2023-02-15T07:26:13;96269.91;;;0.99;89.49
42247;BME280;27913;42.722;23.268;2023-02-15T07:28:39;96348.19;;;1.47;89.54
42247;BME280;27913;42.722;23.268;2023-02-15T07:31:05;96310.84;;;1.22;89.56
42247;BME280;27913;42.722;23.268;2023-02-15T07:33:31;96333.75;;;1.42;89.67
42247;BME280;27913;42.722;23.268;2023-02-15T07:35:59;96245.03;;;0.96;89.34
42247;BME280;27913;42.722;23.268;2023-02-15T07:38:27;96294.19;;;1.26;89.44
42247;BME280;27913;42.722;23.268;2023-02-15T07:40:58;96337.00;;;1.46;89.46
42247;BME280;27913;42.722;23.268;2023-02-15T07:43:24;96327.09;;;1.53;89.60
42247;BME280;27913;42.722;23.268;2023-02-15T07:45:50;96331.53;;;1.51;89.95
42247;BME280;27913;42.722;23.268;2023-02-15T07:48:15;96329.38;;;1.58;89.68
42247;BME280;27913;42.722;23.268;2023-02-15T07:50:40;96319.31;;;1.53;89.40
42247;BME280;27913;42.722;23.268;2023-02-15T07:53:06;96273.91;;;1.32;89.35
42247;BME280;27913;42.722;23.268;2023-02-15T07:55:31;96253.03;;;1.21;88.57
42247;BME280;27913;42.722;23.268;2023-02-15T07:57:57;96299.78;;;1.47;88.68
42247;BME280;27913;42.722;23.268;2023-02-15T08:00:23;96327.66;;;1.71;88.56
42247;BME280;27913;42.722;23.268;2023-02-15T08:02:54;96319.38;;;1.79;88.20
42247;BME280;27913;42.722;23.268;2023-02-15T08:05:40;96295.25;;;1.64;88.22
42247;BME280;27913;42.722;23.268;2023-02-15T08:08:07;96321.47;;;1.87;87.71
42247;BME280;27913;42.722;23.268;2023-02-15T08:10:33;96291.88;;;1.76;86.92
42247;BME280;27913;42.722;23.268;2023-02-15T08:13:17;96278.94;;;1.62;86.12
42247;BME280;27913;42.722;23.268;2023-02-15T08:15:51;96330.31;;;1.97;85.33
42247;BME280;27913;42.722;23.268;2023-02-15T08:18:17;96285.84;;;1.76;85.09
42247;BME280;27913;42.722;23.268;2023-02-15T08:20:48;96338.72;;;2.01;85.27
42247;BME280;27913;42.722;23.268;2023-02-15T08:23:13;96332.41;;;2.05;84.80
42247;BME280;27913;42.722;23.268;2023-02-15T08:25:39;96266.44;;;1.68;84.43
42247;BME280;27913;42.722;23.268;2023-02-15T08:28:04;96258.66;;;1.68;84.29
42247;BME280;27913;42.722;23.268;2023-02-15T08:30:29;96327.13;;;2.07;84.39
42247;BME280;27913;42.722;23.268;2023-02-15T08:32:55;96302.50;;;1.99;83.69
42247;BME280;27913;42.722;23.268;2023-02-15T08:35:20;96286.47;;;1.79;83.45
42247;BME280;27913;42.722;23.268;2023-02-15T08:37:46;96305.94;;;2.00;83.35
42247;BME280;27913;42.722;23.268;2023-02-15T08:40:11;96206.63;;;1.44;83.09
42247;BME280;27913;42.722;23.268;2023-02-15T08:42:38;96331.81;;;2.27;82.33
42247;BME280;27913;42.722;23.268;2023-02-15T08:45:04;96332.41;;;2.18;81.66
42247;BME280;27913;42.722;23.268;2023-02-15T08:47:29;96315.31;;;2.15;81.12
42247;BME280;27913;42.722;23.268;2023-02-15T08:49:55;96333.06;;;2.35;80.85
42247;BME280;27913;42.722;23.268;2023-02-15T08:52:23;96187.56;;;1.45;80.92
42247;BME280;27913;42.722;23.268;2023-02-15T08:54:48;96278.81;;;1.91;80.99
42247;BME280;27913;42.722;23.268;2023-02-15T08:57:14;96326.66;;;2.40;80.46
42247;BME280;27913;42.722;23.268;2023-02-15T08:59:43;96199.09;;;1.54;80.05
42247;BME280;27913;42.722;23.268;2023-02-15T09:02:12;96337.22;;;2.50;79.92
42247;BME280;27913;42.722;23.268;2023-02-15T09:04:38;96287.06;;;2.24;79.81
42247;BME280;27913;42.722;23.268;2023-02-15T09:07:04;96337.53;;;2.59;79.28
42247;BME280;27913;42.722;23.268;2023-02-15T09:09:29;96263.78;;;1.96;79.62
42247;BME280;27913;42.722;23.268;2023-02-15T09:11:56;96335.78;;;2.59;79.95
42247;BME280;27913;42.722;23.268;2023-02-15T09:14:21;96337.56;;;2.72;79.50
42247;BME280;27913;42.722;23.268;2023-02-15T09:16:48;96329.53;;;2.62;79.83
42247;BME280;27913;42.722;23.268;2023-02-15T09:19:17;96330.06;;;2.67;79.91
42247;BME280;27913;42.722;23.268;2023-02-15T09:21:43;96277.19;;;2.42;79.30
42247;BME280;27913;42.722;23.268;2023-02-15T09:24:10;96279.06;;;2.40;78.96
42247;BME280;27913;42.722;23.268;2023-02-15T09:26:39;96287.06;;;2.37;79.40
42247;BME280;27913;42.722;23.268;2023-02-15T09:29:06;96340.47;;;2.67;79.44
42247;BME280;27913;42.722;23.268;2023-02-15T09:31:44;96189.47;;;1.82;79.66
42247;BME280;27913;42.722;23.268;2023-02-15T09:34:11;96334.53;;;2.78;79.54
42247;BME280;27913;42.722;23.268;2023-02-15T09:36:38;96331.19;;;2.89;78.28
42247;BME280;27913;42.722;23.268;2023-02-15T09:39:15;96338.88;;;2.90;77.66
42247;BME280;27913;42.722;23.268;2023-02-15T10:08:20;96321.84;;;3.24;75.84
42247;BME280;27913;42.722;23.268;2023-02-15T10:10:53;96327.09;;;3.11;75.93
42247;BME280;27913;42.722;23.268;2023-02-15T10:27:03;96170.84;;;2.40;75.85
42247;BME280;27913;42.722;23.268;2023-02-15T10:29:39;96277.75;;;2.98;75.21
42247;BME280;27913;42.722;23.268;2023-02-15T10:32:22;96305.34;;;3.12;75.05
42247;BME280;27913;42.722;23.268;2023-02-15T10:35:02;96285.34;;;2.88;75.67
42247;BME280;27913;42.722;23.268;2023-02-15T10:37:54;96308.41;;;3.06;75.96
42247;BME280;27913;42.722;23.268;2023-02-15T10:40:44;96269.53;;;2.91;76.47
42247;BME280;27913;42.722;23.268;2023-02-15T10:51:38;96260.81;;;3.17;75.29
42247;BME280;27913;42.722;23.268;2023-02-15T10:57:26;96225.31;;;2.67;75.31
42247;BME280;27913;42.722;23.268;2023-02-15T11:07:39;96133.78;;;2.63;74.49
42247;BME280;27913;42.722;23.268;2023-02-15T11:13:05;96200.91;;;2.94;73.82
42247;BME280;27913;42.722;23.268;2023-02-15T11:15:37;96261.63;;;3.30;73.98
42247;BME280;27913;42.722;23.268;2023-02-15T11:18:12;96288.13;;;3.35;74.06
42247;BME280;27913;42.722;23.268;2023-02-15T11:20:50;96293.03;;;3.27;74.57
42247;BME280;27913;42.722;23.268;2023-02-15T11:23:17;96251.25;;;2.93;75.01
42247;BME280;27913;42.722;23.268;2023-02-15T11:25:55;96276.66;;;3.13;75.61
42247;BME280;27913;42.722;23.268;2023-02-15T11:28:31;96219.19;;;2.68;76.06
42247;BME280;27913;42.722;23.268;2023-02-15T11:31:02;96281.69;;;3.04;76.53
42247;BME280;27913;42.722;23.268;2023-02-15T11:33:33;96235.72;;;2.67;76.13
42247;BME280;27913;42.722;23.268;2023-02-15T11:36:08;96267.78;;;2.92;75.75
42247;BME280;27913;42.722;23.268;2023-02-15T11:38:37;96260.19;;;2.88;75.49
42247;BME280;27913;42.722;23.268;2023-02-15T11:41:14;96155.03;;;2.44;75.32
42247;BME280;27913;42.722;23.268;2023-02-15T11:43:47;96269.34;;;3.19;75.03
42247;BME280;27913;42.722;23.268;2023-02-15T11:46:16;96234.78;;;3.05;74.67
42247;BME280;27913;42.722;23.268;2023-02-15T11:48:43;96174.59;;;2.74;74.81
42247;BME280;27913;42.722;23.268;2023-02-15T11:51:13;96225.00;;;3.09;74.77
42247;BME280;27913;42.722;23.268;2023-02-15T11:53:41;96248.13;;;3.25;74.40
42247;BME280;27913;42.722;23.268;2023-02-15T11:56:16;96255.94;;;3.25;74.03
42247;BME280;27913;42.722;23.268;2023-02-15T11:58:49;96256.69;;;3.38;73.34
42247;BME280;27913;42.722;23.268;2023-02-15T12:01:36;96213.75;;;3.33;72.73
42247;BME280;27913;42.722;23.268;2023-02-15T12:04:20;96211.94;;;3.22;73.16
42247;BME280;27913;42.722;23.268;2023-02-15T12:06:59;96207.41;;;3.12;73.61
42247;BME280;27913;42.722;23.268;2023-02-15T12:09:40;96222.56;;;3.19;73.96
42247;BME280;27913;42.722;23.268;2023-02-15T12:12:26;96201.88;;;3.17;73.86
42247;BME280;27913;42.722;23.268;2023-02-15T12:14:59;96199.81;;;3.09;74.37
42247;BME280;27913;42.722;23.268;2023-02-15T12:17:34;96231.06;;;3.45;74.19
42247;BME280;27913;42.722;23.268;2023-02-15T12:20:18;96128.50;;;2.89;73.97
42247;BME280;27913;42.722;23.268;2023-02-15T12:22:51;96231.81;;;3.59;73.41
42247;BME280;27913;42.722;23.268;2023-02-15T12:26:02;96216.31;;;3.46;73.49
42247;BME280;27913;42.722;23.268;2023-02-15T12:30:59;96231.00;;;3.58;72.59
42247;BME280;27913;42.722;23.268;2023-02-15T12:33:39;96168.50;;;3.35;72.25
42247;BME280;27913;42.722;23.268;2023-02-15T12:36:18;96186.78;;;3.58;71.92
42247;BME280;27913;42.722;23.268;2023-02-15T12:39:30;96139.56;;;3.52;71.08
42247;BME280;27913;42.722;23.268;2023-02-15T12:44:24;96207.66;;;3.93;71.22
42247;BME280;27913;42.722;23.268;2023-02-15T12:47:03;96189.13;;;4.09;70.69
42247;BME280;27913;42.722;23.268;2023-02-15T12:49:34;96188.75;;;4.14;69.56
42247;BME280;27913;42.722;23.268;2023-02-15T12:52:03;96196.94;;;4.09;70.39
42247;BME280;27913;42.722;23.268;2023-02-15T12:54:40;96187.31;;;4.09;70.08
42247;BME280;27913;42.722;23.268;2023-02-15T12:57:31;96194.19;;;4.22;70.02
42247;BME280;27913;42.722;23.268;2023-02-15T13:07:45;96178.81;;;4.53;68.70
42247;BME280;27913;42.722;23.268;2023-02-15T13:10:21;96152.78;;;4.42;68.58
42247;BME280;27913;42.722;23.268;2023-02-15T13:12:49;96178.81;;;4.65;67.95
42247;BME280;27913;42.722;23.268;2023-02-15T13:15:26;96128.03;;;4.47;67.74
42247;BME280;27913;42.722;23.268;2023-02-15T13:17:53;96125.63;;;4.56;67.18
42247;BME280;27913;42.722;23.268;2023-02-15T13:20:20;96168.34;;;4.76;67.17
42247;BME280;27913;42.722;23.268;2023-02-15T13:22:52;96110.59;;;4.48;67.19
42247;BME280;27913;42.722;23.268;2023-02-15T13:25:25;96164.16;;;4.85;67.51
42247;BME280;27913;42.722;23.268;2023-02-15T13:27:55;96161.16;;;4.68;67.52
42247;BME280;27913;42.722;23.268;2023-02-15T13:30:34;96176.03;;;4.89;67.65
42247;BME280;27913;42.722;23.268;2023-02-15T13:35:46;96180.84;;;4.94;66.55
42247;BME280;27913;42.722;23.268;2023-02-15T13:38:37;96148.31;;;4.88;67.02
42247;BME280;27913;42.722;23.268;2023-02-15T13:44:18;96145.25;;;4.83;67.07
42247;BME280;27913;42.722;23.268;2023-02-15T13:52:28;96049.25;;;4.11;67.52
42247;BME280;27913;42.722;23.268;2023-02-15T13:55:21;96168.13;;;4.79;68.03
42247;BME280;27913;42.722;23.268;2023-02-15T14:03:12;96168.66;;;4.39;68.80
42247;BME280;27913;42.722;23.268;2023-02-15T14:05:56;96180.00;;;4.49;68.94
42247;BME280;27913;42.722;23.268;2023-02-15T14:11:21;96213.25;;;4.68;69.09
42247;BME280;27913;42.722;23.268;2023-02-15T14:13:54;96197.16;;;4.63;68.98
42247;BME280;27913;42.722;23.268;2023-02-15T14:16:53;96161.75;;;4.49;68.61
42247;BME280;27913;42.722;23.268;2023-02-15T14:20:01;96216.94;;;4.77;68.53
42247;BME280;27913;42.722;23.268;2023-02-15T14:25:02;96197.78;;;4.44;69.13
42247;BME280;27913;42.722;23.268;2023-02-15T14:30:15;96182.47;;;4.62;68.75
42247;BME280;27913;42.722;23.268;2023-02-15T14:32:47;96092.44;;;4.02;68.58
42247;BME280;27913;42.722;23.268;2023-02-15T14:35:20;96184.09;;;4.75;68.42
42247;BME280;27913;42.722;23.268;2023-02-15T14:40:51;96210.28;;;4.73;68.93
42247;BME280;27913;42.722;23.268;2023-02-15T14:43:47;96224.16;;;4.74;68.58
42247;BME280;27913;42.722;23.268;2023-02-15T14:46:30;96174.91;;;4.47;68.68
42247;BME280;27913;42.722;23.268;2023-02-15T14:49:14;96217.19;;;4.74;68.10
42247;BME280;27913;42.722;23.268;2023-02-15T14:59:36;96154.69;;;4.05;69.09
42247;BME280;27913;42.722;23.268;2023-02-15T15:04:35;96100.53;;;3.52;70.08
42247;BME280;27913;42.722;23.268;2023-02-15T15:09:36;96206.75;;;4.05;71.05
42247;BME280;27913;42.722;23.268;2023-02-15T15:14:46;96065.59;;;3.08;71.46
42247;BME280;27913;42.722;23.268;2023-02-15T15:20:12;96163.81;;;3.52;72.56
42247;BME280;27913;42.722;23.268;2023-02-15T15:22:40;96144.63;;;3.30;72.60
42247;BME280;27913;42.722;23.268;2023-02-15T15:25:10;96178.81;;;3.48;73.08
42247;BME280;27913;42.722;23.268;2023-02-15T15:27:53;96199.88;;;3.57;73.26
42247;BME280;27913;42.722;23.268;2023-02-15T15:41:17;96180.47;;;2.89;75.10
42247;BME280;27913;42.722;23.268;2023-02-15T15:44:01;96195.41;;;2.98;75.47
42247;BME280;27913;42.722;23.268;2023-02-15T15:49:44;96220.66;;;2.96;76.86
42247;BME280;27913;42.722;23.268;2023-02-15T15:52:18;96218.69;;;3.00;77.00
42247;BME280;27913;42.722;23.268;2023-02-15T15:54:46;96223.50;;;2.93;77.27
42247;BME280;27913;42.722;23.268;2023-02-15T15:57:34;96202.88;;;2.65;77.64
42247;BME280;27913;42.722;23.268;2023-02-15T16:00:00;96227.56;;;2.84;77.88
42247;BME280;27913;42.722;23.268;2023-02-15T16:02:26;96200.50;;;2.62;77.94
42247;BME280;27913;42.722;23.268;2023-02-15T16:04:52;96129.66;;;2.23;78.04
42247;BME280;27913;42.722;23.268;2023-02-15T16:10:06;96229.06;;;2.75;78.41
42247;BME280;27913;42.722;23.268;2023-02-15T16:12:37;96088.28;;;1.82;78.63
42247;BME280;27913;42.722;23.268;2023-02-15T16:15:17;96209.03;;;2.51;78.87